createdAt,value
2018-06-09T00:02:05.109Z,9.13
2018-06-09T00:04:33.288Z,12.67
2018-06-09T00:07:01.552Z,9.17
2018-06-09T00:09:29.804Z,7.10
2018-06-09T00:11:58.440Z,9.63
2018-06-09T00:14:26.719Z,5.23
2018-06-09T00:16:55.089Z,8.30
2018-06-09T00:19:23.368Z,9.93
2018-06-09T00:21:51.822Z,6.60
2018-06-09T00:24:19.996Z,6.03
2018-06-09T00:26:47.921Z,7.23
2018-06-09T00:29:15.880Z,7.70
2018-06-09T00:31:43.842Z,7.93
2018-06-09T00:34:11.858Z,7.27
2018-06-09T00:36:39.813Z,7.53
2018-06-09T00:39:08.074Z,10.33
2018-06-09T00:41:36.495Z,10.50
2018-06-09T00:44:04.669Z,6.77
2018-06-09T00:46:32.742Z,9.50
2018-06-09T00:49:01.091Z,12.87
2018-06-09T00:51:29.529Z,9.30
2018-06-09T00:53:58.695Z,13.80
2018-06-09T00:56:32.504Z,5.97
2018-06-09T00:59:00.709Z,6.73
2018-06-09T01:01:28.891Z,6.40
2018-06-09T01:03:57.305Z,8.40
2018-06-09T01:06:25.625Z,7.77
2018-06-09T01:08:53.660Z,8.53
2018-06-09T01:11:21.818Z,9.73
2018-06-09T01:13:49.774Z,8.80
2018-06-09T01:16:18.438Z,8.77
2018-06-09T01:18:46.722Z,9.37
2018-06-09T01:21:14.848Z,8.60
2018-06-09T01:23:42.838Z,12.37
2018-06-09T01:26:11.383Z,12.57
2018-06-09T01:28:39.304Z,5.47
2018-06-09T01:31:08.407Z,8.63
2018-06-09T01:33:36.316Z,7.50
2018-06-09T01:36:04.629Z,11.20
2018-06-09T01:38:32.758Z,10.73
2018-06-09T01:41:01.049Z,7.90
2018-06-09T01:43:29.463Z,5.87
2018-06-09T01:45:57.613Z,5.80
2018-06-09T01:48:25.752Z,10.10
2018-06-09T01:50:53.910Z,6.23
2018-06-09T01:53:21.861Z,8.57
2018-06-09T01:55:49.858Z,7.53
2018-06-09T01:58:18.027Z,8.53
2018-06-09T02:00:46.141Z,5.83
2018-06-09T02:03:14.078Z,15.57
2018-06-09T02:05:42.045Z,10.93
2018-06-09T02:08:10.201Z,9.30
2018-06-09T02:10:38.186Z,11.20
2018-06-09T02:13:06.282Z,10.00
2018-06-09T02:15:34.297Z,6.43
2018-06-09T02:18:02.548Z,8.60
2018-06-09T02:20:30.764Z,6.47
2018-06-09T02:22:58.884Z,6.57
2018-06-09T02:25:27.189Z,12.80
2018-06-09T02:27:55.715Z,7.80
2018-06-09T02:30:23.869Z,7.53
2018-06-09T02:32:51.833Z,9.50
2018-06-09T02:35:20.009Z,7.00
2018-06-09T02:37:48.249Z,9.00
2018-06-09T02:40:16.202Z,8.57
2018-06-09T02:42:44.215Z,20.27
2018-06-09T02:45:12.126Z,9.47
2018-06-09T02:47:40.816Z,7.57
2018-06-09T02:50:08.761Z,9.13
2018-06-09T02:52:36.697Z,9.47
2018-06-09T02:55:04.804Z,10.60
2018-06-09T02:57:32.995Z,11.83
2018-06-09T03:00:01.110Z,10.10
2018-06-09T03:02:29.354Z,12.33
2018-06-09T03:04:57.670Z,10.10
2018-06-09T03:07:26.109Z,9.63
2018-06-09T03:09:54.241Z,9.63
2018-06-09T03:12:22.223Z,10.13
2018-06-09T03:14:50.157Z,10.80
2018-06-09T03:17:18.312Z,20.60
2018-06-09T03:19:46.254Z,15.53
2018-06-09T03:22:14.300Z,20.90
2018-06-09T03:24:42.279Z,17.23
2018-06-09T03:27:10.445Z,11.50
2018-06-09T03:29:38.381Z,13.70
2018-06-09T03:32:06.507Z,13.57
2018-06-09T03:34:34.485Z,16.00
2018-06-09T03:37:02.528Z,18.47
2018-06-09T03:39:30.630Z,13.30
2018-06-09T03:41:58.741Z,15.03
2018-06-09T03:44:26.988Z,14.83
2018-06-09T03:46:55.527Z,13.80
2018-06-09T03:49:23.870Z,13.50
2018-06-09T03:51:51.924Z,11.77
2018-06-09T03:54:19.953Z,17.53
2018-06-09T03:56:48.069Z,18.57
2018-06-09T03:59:18.434Z,16.13
2018-06-09T04:01:46.420Z,13.00
2018-06-09T04:04:14.430Z,13.90
2018-06-09T04:06:42.477Z,12.57
2018-06-09T04:09:10.500Z,15.20
2018-06-09T04:11:38.513Z,15.97
2018-06-09T04:14:06.531Z,15.93
2018-06-09T04:16:34.784Z,12.77
2018-06-09T04:19:03.063Z,14.23
2018-06-09T04:21:31.274Z,15.33
2018-06-09T04:23:59.691Z,16.03
2018-06-09T04:26:28.220Z,12.63
2018-06-09T04:28:56.440Z,17.30
2018-06-09T04:31:24.542Z,17.13
2018-06-09T04:33:52.463Z,20.17
2018-06-09T04:36:20.493Z,12.23
2018-06-09T04:38:48.612Z,15.30
2018-06-09T04:41:16.613Z,11.77
2018-06-09T04:43:44.677Z,11.83
2018-06-09T04:46:12.689Z,11.90
2018-06-09T04:48:40.713Z,16.07
2018-06-09T04:51:08.673Z,10.57
2018-06-09T04:53:36.749Z,14.13
2018-06-09T04:56:04.880Z,9.80
2018-06-09T04:58:33.022Z,14.80
2018-06-09T05:01:01.335Z,12.50
2018-06-09T05:03:29.729Z,13.20
2018-06-09T05:05:58.231Z,12.37
2018-06-09T05:08:26.717Z,14.30
2018-06-09T05:10:55.381Z,17.27
2018-06-09T05:13:23.539Z,22.00
2018-06-09T05:15:52.050Z,11.10
2018-06-09T05:18:20.243Z,13.27
2018-06-09T05:20:48.162Z,11.00
2018-06-09T05:23:16.114Z,10.23
2018-06-09T05:25:44.069Z,13.23
2018-06-09T05:28:12.019Z,13.20
2018-06-09T05:30:39.971Z,12.10
2018-06-09T05:33:07.970Z,12.10
2018-06-09T05:35:35.903Z,12.63
2018-06-09T05:38:03.871Z,13.67
2018-06-09T05:40:32.325Z,10.70
2018-06-09T05:43:01.005Z,12.20
2018-06-09T05:45:29.399Z,11.13
2018-06-09T05:47:57.776Z,9.50
2018-06-09T05:50:26.778Z,9.23
2018-06-09T05:52:55.205Z,13.37
2018-06-09T05:55:23.418Z,8.30
2018-06-09T05:57:51.716Z,9.53
2018-06-09T06:00:19.940Z,11.47
2018-06-09T06:02:47.892Z,8.50
2018-06-09T06:05:15.933Z,9.23
2018-06-09T06:07:44.443Z,10.30
2018-06-09T06:10:12.690Z,9.03
2018-06-09T06:12:41.041Z,8.33
2018-06-09T06:15:09.151Z,13.03
2018-06-09T06:17:37.257Z,9.47
2018-06-09T06:20:05.325Z,9.37
2018-06-09T06:22:33.590Z,6.93
2018-06-09T06:25:09.843Z,14.23
2018-06-09T06:27:37.953Z,7.70
2018-06-09T06:30:05.931Z,6.87
2018-06-09T06:32:34.523Z,5.40
2018-06-09T06:35:03.041Z,10.23
2018-06-09T06:37:31.542Z,8.17
2018-06-09T06:39:59.936Z,8.33
2018-06-09T06:42:29.856Z,11.63
2018-06-09T06:44:58.762Z,9.23
2018-06-09T06:47:27.710Z,9.77
2018-06-09T06:49:57.575Z,8.90
2018-06-09T06:52:26.614Z,17.20
2018-06-09T06:54:56.258Z,7.60
2018-06-09T06:57:24.746Z,9.10
2018-06-09T06:59:54.177Z,10.33
2018-06-09T07:02:22.337Z,12.60
2018-06-09T07:04:50.356Z,8.77
2018-06-09T07:07:18.334Z,6.77
2018-06-09T07:09:46.345Z,13.13
2018-06-09T07:12:14.460Z,8.83
2018-06-09T07:14:42.994Z,8.10
2018-06-09T07:17:10.957Z,16.50
2018-06-09T07:19:38.920Z,17.93
2018-06-09T07:22:07.243Z,10.83
2018-06-09T07:24:35.253Z,9.07
2018-06-09T07:27:03.619Z,9.27
2018-06-09T07:29:32.354Z,18.93
2018-06-09T07:32:00.890Z,12.00
2018-06-09T07:34:29.777Z,17.00
2018-06-09T07:36:58.909Z,10.60
2018-06-09T07:39:27.996Z,10.07
2018-06-09T07:41:57.126Z,11.50
2018-06-09T07:44:27.101Z,12.87
2018-06-09T07:46:56.192Z,12.70
2018-06-09T07:49:26.165Z,11.70
2018-06-09T07:51:54.432Z,17.63
2018-06-09T07:54:23.467Z,17.87
2018-06-09T07:56:51.512Z,15.00
2018-06-09T07:59:20.929Z,12.47
2018-06-09T08:01:48.905Z,19.13
2018-06-09T08:04:17.600Z,13.33
2018-06-09T08:06:45.690Z,11.73
2018-06-09T08:09:14.692Z,13.33
2018-06-09T08:11:45.119Z,15.43
2018-06-09T08:14:15.562Z,10.90
2018-06-09T08:16:47.341Z,12.63
2018-06-09T08:19:15.529Z,18.63
2018-06-09T08:21:43.511Z,14.40
2018-06-09T08:24:11.542Z,13.23
2018-06-09T08:26:39.771Z,11.03
2018-06-09T08:29:08.151Z,14.80
2018-06-09T08:31:36.877Z,12.90
2018-06-09T08:34:05.730Z,10.73
2018-06-09T08:36:34.459Z,17.80
2018-06-09T08:39:03.134Z,12.90
2018-06-09T08:41:31.779Z,15.13
2018-06-09T08:44:00.792Z,12.87
2018-06-09T08:46:29.518Z,11.93
2018-06-09T08:48:58.178Z,14.73
2018-06-09T08:51:27.136Z,15.00
2018-06-09T08:53:56.326Z,12.63
2018-06-09T08:56:24.776Z,12.53
2018-06-09T08:58:53.101Z,14.33
2018-06-09T09:01:21.372Z,15.57
2018-06-09T09:03:49.372Z,17.20
2018-06-09T09:06:21.366Z,15.77
2018-06-09T09:08:51.520Z,16.10
2018-06-09T09:11:19.664Z,11.87
2018-06-09T09:13:47.733Z,12.43
2018-06-09T09:16:16.568Z,17.20
2018-06-09T09:18:44.772Z,13.60
2018-06-09T09:21:12.951Z,15.70
2018-06-09T09:23:41.247Z,12.20
2018-06-09T09:26:10.229Z,11.10
2018-06-09T09:28:41.187Z,9.97
2018-06-09T09:31:11.882Z,10.23
2018-06-09T09:33:41.706Z,14.57
2018-06-09T09:36:12.502Z,10.07
2018-06-09T09:38:44.217Z,11.20
2018-06-09T09:41:13.966Z,16.90
2018-06-09T09:43:44.201Z,10.47
2018-06-09T09:46:14.923Z,11.30
2018-06-09T09:48:45.090Z,13.23
2018-06-09T09:51:13.637Z,12.73
2018-06-09T09:53:46.210Z,16.07
2018-06-09T09:56:14.198Z,11.20
2018-06-09T09:58:42.786Z,15.00
2018-06-09T10:01:11.336Z,13.43
2018-06-09T10:03:39.351Z,10.70
2018-06-09T10:06:07.886Z,10.53
2018-06-09T10:08:36.144Z,32.97
2018-06-09T10:11:04.628Z,8.73
2018-06-09T10:13:33.270Z,11.50
2018-06-09T10:16:02.251Z,12.07
2018-06-09T10:18:31.648Z,11.53
2018-06-09T10:21:00.367Z,11.57
2018-06-09T10:23:29.247Z,21.53
2018-06-09T10:25:58.116Z,14.53
2018-06-09T10:28:27.689Z,11.50
2018-06-09T10:30:57.334Z,13.43
2018-06-09T10:33:26.333Z,16.23
2018-06-09T10:35:59.625Z,12.03
2018-06-09T10:38:28.407Z,17.80
2018-06-09T10:40:59.192Z,9.70
2018-06-09T10:43:28.836Z,14.93
2018-06-09T10:45:57.795Z,14.00
2018-06-09T10:48:28.078Z,16.47
2018-06-09T10:50:56.853Z,11.10
2018-06-09T10:53:25.721Z,14.97
2018-06-09T10:55:55.218Z,12.03
2018-06-09T10:58:24.487Z,13.60
2018-06-09T11:00:53.164Z,13.50
2018-06-09T11:03:21.688Z,17.00
2018-06-09T11:05:50.252Z,9.00
2018-06-09T11:08:18.330Z,10.67
2018-06-09T11:10:46.428Z,9.50
2018-06-09T11:13:14.650Z,10.43
2018-06-09T11:15:42.774Z,11.67
2018-06-09T11:18:11.265Z,10.03
2018-06-09T11:20:39.297Z,11.73
2018-06-09T11:23:07.891Z,11.90
2018-06-09T11:25:35.948Z,10.73
2018-06-09T11:28:04.542Z,11.87
2018-06-09T11:30:33.765Z,10.17
2018-06-09T11:33:02.170Z,13.07
2018-06-09T11:35:30.847Z,11.90
2018-06-09T11:38:00.648Z,11.90
2018-06-09T11:40:30.776Z,15.87
2018-06-09T11:43:00.970Z,14.33
2018-06-09T11:45:29.948Z,12.90
2018-06-09T11:47:58.823Z,13.07
2018-06-09T11:50:26.857Z,13.03
2018-06-09T11:52:56.708Z,10.73
2018-06-09T11:55:25.374Z,13.63
2018-06-09T11:57:53.355Z,16.27
2018-06-09T12:00:21.322Z,10.93
2018-06-09T12:02:49.308Z,14.33
2018-06-09T12:05:17.193Z,9.33
2018-06-09T12:07:45.093Z,10.53
2018-06-09T12:10:13.041Z,12.87
2018-06-09T12:12:41.047Z,7.50
2018-06-09T12:15:09.122Z,11.07
2018-06-09T12:17:37.065Z,6.93
2018-06-09T12:20:05.018Z,8.40
2018-06-09T12:22:33.357Z,8.17
2018-06-09T12:25:01.677Z,8.43
2018-06-09T12:27:29.650Z,9.90
2018-06-09T12:29:57.743Z,9.60
2018-06-09T12:32:26.289Z,15.60
2018-06-09T12:34:54.827Z,11.93
2018-06-09T12:37:23.136Z,7.50
2018-06-09T12:39:51.099Z,7.43
2018-06-09T12:42:18.996Z,8.47
2018-06-09T12:44:47.061Z,11.63
2018-06-09T12:47:14.959Z,13.10
2018-06-09T12:49:42.893Z,11.13
2018-06-09T12:52:10.820Z,11.80
2018-06-09T12:54:38.737Z,7.57
2018-06-09T12:57:06.902Z,12.70
2018-06-09T12:59:34.990Z,8.90
2018-06-09T13:02:03.111Z,10.00
2018-06-09T13:04:31.392Z,10.50
2018-06-09T13:07:00.018Z,11.40
2018-06-09T13:09:28.340Z,8.43
2018-06-09T13:11:56.814Z,8.87
2018-06-09T13:14:24.961Z,7.70
2018-06-09T13:16:52.929Z,7.00
2018-06-09T13:19:20.980Z,8.37
2018-06-09T13:21:49.148Z,7.77
2018-06-09T13:24:17.085Z,8.50
2018-06-09T13:26:45.323Z,8.90
2018-06-09T13:29:13.240Z,8.00
2018-06-09T13:31:41.189Z,7.87
2018-06-09T13:34:09.120Z,11.70
2018-06-09T13:36:37.136Z,11.47
2018-06-09T13:39:06.393Z,10.00
2018-06-09T13:41:34.495Z,12.27
2018-06-09T13:44:02.736Z,9.27
2018-06-09T13:46:31.010Z,7.47
2018-06-09T13:48:59.084Z,9.07
2018-06-09T13:51:27.397Z,9.07
2018-06-09T13:53:55.989Z,12.97
2018-06-09T13:56:24.053Z,8.67
2018-06-09T13:58:51.992Z,11.93
2018-06-09T14:01:20.029Z,8.70
2018-06-09T14:03:47.924Z,9.50
2018-06-09T14:06:15.842Z,11.40
2018-06-09T14:08:43.778Z,14.70
2018-06-09T14:11:11.799Z,7.83
2018-06-09T14:13:39.708Z,8.80
2018-06-09T14:16:08.039Z,8.70
2018-06-09T14:18:36.140Z,8.23
2018-06-09T14:21:08.538Z,8.50
2018-06-09T14:23:37.230Z,15.20
2018-06-09T14:26:06.598Z,8.73
2018-06-09T14:28:35.034Z,9.73
2018-06-09T14:31:03.701Z,8.77
2018-06-09T14:33:32.456Z,7.77
2018-06-09T14:36:01.236Z,8.20
2018-06-09T14:38:29.729Z,11.37
2018-06-09T14:41:01.008Z,7.63
2018-06-09T14:43:30.178Z,10.63
2018-06-09T14:45:59.152Z,6.90
2018-06-09T14:48:28.902Z,9.23
2018-06-09T14:50:57.537Z,9.20
2018-06-09T14:53:26.149Z,6.57
2018-06-09T14:55:54.930Z,7.63
2018-06-09T14:58:24.901Z,12.27
2018-06-09T15:00:54.462Z,7.40
2018-06-09T15:03:22.718Z,10.30
2018-06-09T15:05:50.976Z,11.43
2018-06-09T15:08:21.427Z,10.47
2018-06-09T15:10:49.813Z,5.93
2018-06-09T15:13:18.980Z,14.47
2018-06-09T15:15:47.130Z,16.33
2018-06-09T15:18:15.390Z,10.10
2018-06-09T15:20:43.557Z,9.70
2018-06-09T15:23:11.832Z,12.30
2018-06-09T15:25:40.811Z,9.97
2018-06-09T15:28:09.209Z,9.17
2018-06-09T15:30:39.687Z,13.73
2018-06-09T15:33:12.666Z,10.70
2018-06-09T15:35:41.361Z,11.77
2018-06-09T15:38:09.663Z,14.33
2018-06-09T15:40:38.100Z,13.13
2018-06-09T15:43:06.073Z,11.37
2018-06-09T15:45:34.787Z,8.37
2018-06-09T15:48:03.123Z,12.87
2018-06-09T15:50:31.442Z,12.50
2018-06-09T15:52:59.961Z,12.10
2018-06-09T15:55:28.623Z,8.37
2018-06-09T15:57:57.959Z,10.90
2018-06-09T16:00:26.556Z,9.23
2018-06-09T16:02:55.635Z,12.90
2018-06-09T16:05:24.371Z,12.80
2018-06-09T16:07:52.613Z,13.03
2018-06-09T16:10:25.535Z,15.13
2018-06-09T16:12:53.663Z,13.17
2018-06-09T16:15:21.774Z,13.13
2018-06-09T16:17:50.389Z,12.10
2018-06-09T16:20:18.822Z,12.73
2018-06-09T16:22:50.218Z,14.67
2018-06-09T16:25:18.670Z,11.37
2018-06-09T16:27:46.776Z,17.07
2018-06-09T16:30:21.643Z,12.90
2018-06-09T16:32:50.132Z,24.70
2018-06-09T16:35:18.142Z,17.07
2018-06-09T16:37:46.325Z,18.80
2018-06-09T16:40:14.363Z,16.57
2018-06-09T16:42:43.611Z,18.27
2018-06-09T16:45:11.928Z,21.03
2018-06-09T16:47:40.475Z,21.40
2018-06-09T16:50:08.674Z,25.97
2018-06-09T16:52:36.961Z,18.00
2018-06-09T16:55:05.395Z,18.13
2018-06-09T16:57:33.878Z,26.60
2018-06-09T17:00:02.300Z,27.17
2018-06-09T17:02:30.913Z,27.20
2018-06-09T17:04:59.165Z,23.47
2018-06-09T17:07:32.489Z,21.73
2018-06-09T17:10:04.250Z,19.73
2018-06-09T17:12:34.022Z,22.70
2018-06-09T17:15:02.142Z,34.37
2018-06-09T17:17:30.604Z,24.77
2018-06-09T17:19:59.007Z,21.50
2018-06-09T17:22:27.331Z,17.93
2018-06-09T17:24:55.901Z,25.10
2018-06-09T17:27:24.816Z,22.70
2018-06-09T17:29:52.873Z,19.27
2018-06-09T17:32:21.936Z,25.50
2018-06-09T17:34:51.078Z,21.23
2018-06-09T17:37:21.281Z,19.27
2018-06-09T17:39:49.405Z,20.53
2018-06-09T17:42:17.586Z,14.43
2018-06-09T17:44:45.722Z,22.20
2018-06-09T17:47:14.213Z,20.90
2018-06-09T17:49:42.617Z,22.97
2018-06-09T17:52:10.926Z,20.20
2018-06-09T17:54:40.132Z,23.93
2018-06-09T17:57:08.062Z,27.00
2018-06-09T17:59:35.981Z,18.90
2018-06-09T18:02:04.112Z,20.37
2018-06-09T18:04:32.176Z,16.33
2018-06-09T18:07:00.351Z,15.40
2018-06-09T18:09:28.483Z,27.40
2018-06-09T18:11:56.810Z,19.33
2018-06-09T18:14:25.043Z,17.53
2018-06-09T18:16:53.233Z,14.17
2018-06-09T18:19:21.239Z,16.10
2018-06-09T18:21:49.190Z,20.63
2018-06-09T18:24:17.098Z,23.02
2018-06-09T18:26:45.017Z,22.20
2018-06-09T18:29:13.262Z,22.10
2018-06-09T18:31:41.324Z,18.93
2018-06-09T18:34:09.222Z,22.03
2018-06-09T18:36:37.422Z,22.70
2018-06-09T18:39:07.304Z,27.53
2018-06-09T18:41:35.267Z,22.50
2018-06-09T18:44:03.529Z,19.27
2018-06-09T18:46:31.530Z,20.90
2018-06-09T18:48:59.670Z,23.80
2018-06-09T18:51:28.526Z,17.30
2018-06-09T18:53:56.620Z,22.03
2018-06-09T18:56:24.599Z,20.03
2018-06-09T18:58:52.790Z,29.07
2018-06-09T19:01:20.686Z,24.07
2018-06-09T19:03:48.743Z,21.93
2018-06-09T19:06:16.756Z,20.57
2018-06-09T19:08:44.686Z,20.20
2018-06-09T19:11:12.681Z,39.57
2018-06-09T19:13:40.574Z,38.73
2018-06-09T19:16:08.601Z,55.33
2018-06-09T19:18:36.647Z,50.03
2018-06-09T19:21:04.635Z,22.83
2018-06-09T19:23:32.894Z,27.30
2018-06-09T19:26:01.037Z,31.67
2018-06-09T19:28:29.143Z,38.97
2018-06-09T19:30:57.361Z,31.80
2018-06-09T19:33:25.514Z,32.80
2018-06-09T19:35:53.541Z,26.13
2018-06-09T19:38:21.506Z,23.93
2018-06-09T19:40:49.452Z,30.10
2018-06-09T19:43:17.371Z,23.07
2018-06-09T19:45:45.316Z,28.33
2018-06-09T19:48:13.272Z,34.20
2018-06-09T19:50:42.225Z,90.60
2018-06-09T19:53:10.198Z,41.80
2018-06-09T19:55:38.213Z,33.97
2018-06-09T19:58:06.644Z,77.33
2018-06-09T20:00:35.192Z,118.70
2018-06-09T20:03:03.657Z,146.97
2018-06-09T20:05:33.427Z,63.87
2018-06-09T20:08:02.262Z,117.77
2018-06-09T20:10:30.914Z,48.10
2018-06-09T20:12:59.374Z,53.17
2018-06-09T20:15:28.215Z,30.90
2018-06-09T20:17:58.456Z,26.10
2018-06-09T20:20:34.758Z,20.30
2018-06-09T20:23:03.406Z,18.77
2018-06-09T20:25:32.211Z,16.73
2018-06-09T20:28:01.675Z,17.17
2018-06-09T20:30:29.917Z,20.57
2018-06-09T20:32:58.502Z,20.40
2018-06-09T20:35:26.962Z,24.87
2018-06-09T20:37:55.363Z,22.67
2018-06-09T20:40:23.862Z,31.27
2018-06-09T20:42:51.955Z,34.57
2018-06-09T20:45:20.179Z,25.93
2018-06-09T20:47:48.349Z,26.93
2018-06-09T20:50:17.075Z,34.10
2018-06-09T20:52:45.330Z,24.03
2018-06-09T20:55:13.596Z,27.43
2018-06-09T20:57:41.738Z,22.83
2018-06-09T21:00:10.454Z,23.20
2018-06-09T21:02:38.674Z,21.90
2018-06-09T21:05:07.319Z,25.67
2018-06-09T21:07:40.186Z,26.73
2018-06-09T21:10:08.213Z,24.97
2018-06-09T21:12:36.839Z,35.63
2018-06-09T21:15:05.139Z,30.33
2018-06-09T21:17:33.480Z,32.47
2018-06-09T21:20:01.930Z,38.93
2018-06-09T21:22:37.973Z,37.50
2018-06-09T21:25:16.483Z,35.93
2018-06-09T21:27:49.967Z,28.17
2018-06-09T21:30:22.214Z,29.03
2018-06-09T21:32:55.762Z,29.20
2018-06-09T21:35:36.590Z,28.30
2018-06-09T21:38:10.187Z,23.00
2018-06-09T21:40:44.197Z,26.70
2018-06-09T21:43:17.500Z,29.07
2018-06-09T21:45:48.604Z,26.63
2018-06-09T21:48:18.159Z,23.20
2018-06-09T21:50:47.826Z,22.83
2018-06-09T21:53:15.960Z,27.40
2018-06-09T21:55:45.352Z,25.83
2018-06-09T21:58:13.305Z,25.10
2018-06-09T22:00:41.517Z,25.53
2018-06-09T22:03:09.505Z,24.77
2018-06-09T22:05:37.887Z,22.63
2018-06-09T22:08:06.014Z,26.83
2018-06-09T22:10:34.132Z,24.03
2018-06-09T22:13:02.375Z,32.80
2018-06-09T22:18:05.341Z,25.30
2018-06-09T22:20:33.610Z,29.20
2018-06-09T22:23:01.981Z,27.77
2018-06-09T22:25:35.762Z,32.43
2018-06-09T22:28:09.634Z,34.70
2018-06-09T22:30:37.640Z,27.57
2018-06-09T22:33:05.630Z,27.00
2018-06-09T22:35:34.866Z,28.13
2018-06-09T22:38:03.181Z,31.67
2018-06-09T22:40:31.326Z,24.97
2018-06-09T22:43:00.237Z,23.67
2018-06-09T22:45:28.756Z,23.53
2018-06-09T22:47:58.065Z,22.10
2018-06-09T22:50:27.800Z,19.13
2018-06-09T22:52:57.689Z,24.63
2018-06-09T22:55:26.267Z,19.90
2018-06-09T22:57:54.439Z,20.90
2018-06-09T23:00:30.635Z,18.23
2018-06-09T23:02:59.326Z,22.67
2018-06-09T23:05:27.929Z,21.20
2018-06-09T23:07:56.159Z,26.73
2018-06-09T23:10:24.310Z,22.07
2018-06-09T23:12:52.632Z,20.53
2018-06-09T23:15:21.610Z,25.30
2018-06-09T23:17:50.204Z,23.70
2018-06-09T23:20:18.896Z,22.80
2018-06-09T23:22:47.056Z,19.93
2018-06-09T23:25:15.275Z,33.90
2018-06-09T23:27:43.837Z,25.93
2018-06-09T23:30:11.856Z,16.47
2018-06-09T23:32:40.072Z,24.47
2018-06-09T23:35:08.097Z,20.87
2018-06-09T23:37:36.131Z,16.37
2018-06-09T23:40:04.197Z,18.77
2018-06-09T23:42:32.488Z,12.13
2018-06-09T23:45:01.250Z,10.67
2018-06-09T23:47:30.988Z,13.67
2018-06-09T23:49:59.590Z,15.77
2018-06-09T23:52:30.633Z,13.23
2018-06-09T23:55:00.559Z,13.80
2018-06-09T23:57:30.562Z,13.80
2018-06-09T23:59:59.936Z,14.57
